createdAt,value
2023-01-29T00:08:28.836Z,99569.48
2023-01-29T00:18:56.337Z,99572.41
2023-01-29T00:29:23.855Z,99581.12
2023-01-29T00:39:51.362Z,99597.34
2023-01-29T00:50:19.337Z,99597.74
2023-01-29T01:00:47.048Z,99604.98
2023-01-29T01:11:14.577Z,99611.88
2023-01-29T01:21:48.284Z,99616.38
2023-01-29T01:32:16.106Z,99624.15
2023-01-29T01:42:43.741Z,99612.16
2023-01-29T01:53:13.757Z,99608.21
2023-01-29T02:04:05.020Z,99604.02
2023-01-29T02:14:34.608Z,99592.71
2023-01-29T02:25:26.267Z,99578.06
2023-01-29T02:36:01.993Z,99575.73
2023-01-29T02:46:36.435Z,99560.86
2023-01-29T02:57:14.906Z,99561.73
2023-01-29T03:07:51.025Z,99585.86
2023-01-29T03:18:26.171Z,99595.23
2023-01-29T03:29:12.053Z,99598.05
2023-01-29T03:39:39.730Z,99605.63
2023-01-29T03:50:13.943Z,99603.00
2023-01-29T04:00:46.342Z,99591.77
2023-01-29T04:11:17.473Z,99573.59
2023-01-29T04:21:46.581Z,99570.20
2023-01-29T04:32:21.722Z,99555.16
2023-01-29T04:42:57.945Z,99531.65
2023-01-29T04:53:36.082Z,99509.15
2023-01-29T05:04:07.661Z,99501.36
2023-01-29T05:14:35.883Z,99501.75
2023-01-29T05:25:03.370Z,99508.17
2023-01-29T05:35:31.325Z,99512.08
2023-01-29T05:46:00.478Z,99518.77
2023-01-29T05:56:28.006Z,99506.88
2023-01-29T06:06:55.674Z,99522.33
2023-01-29T06:17:23.141Z,99528.98
2023-01-29T06:27:53.214Z,99537.23
2023-01-29T06:38:20.845Z,99547.52
2023-01-29T06:48:48.334Z,99548.98
2023-01-29T06:59:16.129Z,99540.95
2023-01-29T07:09:44.572Z,99541.15
2023-01-29T07:20:14.920Z,99547.73
2023-01-29T07:30:42.843Z,99554.11
2023-01-29T07:41:10.983Z,99564.70
2023-01-29T07:51:38.515Z,99570.43
2023-01-29T08:02:06.082Z,99572.20
2023-01-29T08:12:33.715Z,99587.86
2023-01-29T08:23:05.999Z,99604.90
2023-01-29T08:33:39.031Z,99614.24
2023-01-29T08:44:07.422Z,99607.98
2023-01-29T08:54:35.062Z,99615.84
2023-01-29T09:05:02.663Z,99617.08
2023-01-29T09:15:30.541Z,99612.73
2023-01-29T09:25:58.494Z,99596.04
2023-01-29T09:36:26.065Z,99580.56
2023-01-29T09:46:55.991Z,99581.23
2023-01-29T09:57:31.907Z,99593.19
2023-01-29T10:08:26.446Z,99570.95
2023-01-29T10:19:19.993Z,99547.23
2023-01-29T10:29:50.217Z,99530.47
2023-01-29T10:40:24.436Z,99505.70
2023-01-29T10:50:57.835Z,99474.31
2023-01-29T11:01:26.916Z,99460.42
2023-01-29T11:11:59.357Z,99442.73
2023-01-29T11:22:28.022Z,99427.67
2023-01-29T11:32:58.255Z,99403.94
2023-01-29T11:43:32.189Z,99391.14
2023-01-29T11:54:01.890Z,99385.35
2023-01-29T12:04:29.802Z,99379.66
2023-01-29T12:15:16.219Z,99383.30
2023-01-29T12:25:51.677Z,99373.71
2023-01-29T12:36:25.982Z,99366.77
2023-01-29T12:46:57.769Z,99354.67
2023-01-29T12:57:31.358Z,99337.95
2023-01-29T13:08:04.314Z,99329.55
2023-01-29T13:18:43.186Z,99323.25
2023-01-29T13:29:24.519Z,99310.83
2023-01-29T13:39:54.249Z,99309.07
2023-01-29T13:50:28.353Z,99303.70
2023-01-29T14:00:56.448Z,99288.27
2023-01-29T14:11:37.856Z,99270.86
2023-01-29T14:22:06.167Z,99266.73
2023-01-29T14:32:33.937Z,99265.20
2023-01-29T14:43:05.266Z,99268.89
2023-01-29T14:53:45.642Z,99263.30
2023-01-29T15:04:22.145Z,99264.68
2023-01-29T15:15:01.195Z,99260.65
2023-01-29T15:25:33.966Z,99269.39
2023-01-29T15:36:07.850Z,99253.80
2023-01-29T15:46:39.650Z,99250.70
2023-01-29T15:57:18.618Z,99244.06
2023-01-29T16:07:47.449Z,99221.35
2023-01-29T16:18:25.177Z,99219.23
2023-01-29T16:28:53.415Z,99223.65
2023-01-29T16:39:24.437Z,99214.16
2023-01-29T16:49:55.019Z,99207.54
2023-01-29T17:00:26.173Z,99214.29
2023-01-29T17:10:54.538Z,99217.90
2023-01-29T17:21:22.461Z,99217.54
2023-01-29T17:31:50.015Z,99211.91
2023-01-29T17:42:17.798Z,99203.49
2023-01-29T17:52:45.432Z,99196.57
2023-01-29T18:03:12.968Z,99178.69
2023-01-29T18:13:42.035Z,99173.54
2023-01-29T18:24:10.261Z,99181.88
2023-01-29T18:34:37.984Z,99177.44
2023-01-29T18:45:06.221Z,99161.88
2023-01-29T18:55:34.076Z,99154.95
2023-01-29T19:06:04.825Z,99158.77
2023-01-29T19:16:32.367Z,99148.55
2023-01-29T19:27:00.998Z,99130.45
2023-01-29T19:37:26.979Z,99118.64
2023-01-29T19:47:55.516Z,99120.70
2023-01-29T19:58:21.478Z,99119.16
2023-01-29T20:08:49.136Z,99108.40
2023-01-29T20:19:16.691Z,99098.23
2023-01-29T20:29:45.347Z,99093.96
2023-01-29T20:40:15.837Z,99094.00
2023-01-29T20:50:43.511Z,99090.08
2023-01-29T21:01:12.769Z,99078.14
2023-01-29T21:11:40.417Z,99073.16
2023-01-29T21:22:07.957Z,99060.48
2023-01-29T21:32:35.521Z,99033.01
2023-01-29T21:43:16.163Z,99020.21
2023-01-29T21:53:43.762Z,99015.71
2023-01-29T22:04:11.714Z,99001.55
2023-01-29T22:14:39.234Z,98986.27
2023-01-29T22:25:07.837Z,98974.17
2023-01-29T22:35:33.815Z,98953.46
2023-01-29T22:46:01.397Z,98927.90
2023-01-29T22:56:29.757Z,98917.58
2023-01-29T23:06:57.535Z,98906.28
2023-01-29T23:17:25.168Z,98880.38
2023-01-29T23:27:52.741Z,98873.85
2023-01-29T23:38:20.268Z,98854.51
2023-01-29T23:48:47.842Z,98825.15
2023-01-29T23:59:15.991Z,98803.83
